sensor_id;sensor_type;location;lat;lon;timestamp;P1;durP1;ratioP1;P2;durP2;ratioP2
24151;SDS011;12311;50.866;4.332;2023-04-06T05:32:46;12.05;;;4.80;;
24151;SDS011;12311;50.866;4.332;2023-04-06T05:35:12;15.40;;;5.80;;
24151;SDS011;12311;50.866;4.332;2023-04-06T05:37:38;13.90;;;4.38;;
24151;SDS011;12311;50.866;4.332;2023-04-06T05:40:04;17.83;;;5.22;;
24151;SDS011;12311;50.866;4.332;2023-04-06T05:42:37;11.45;;;4.82;;
24151;SDS011;12311;50.866;4.332;2023-04-06T05:45:03;11.00;;;4.75;;
24151;SDS011;12311;50.866;4.332;2023-04-06T05:47:30;14.52;;;5.03;;
24151;SDS011;12311;50.866;4.332;2023-04-06T05:49:56;13.18;;;4.70;;
24151;SDS011;12311;50.866;4.332;2023-04-06T05:52:21;8.80;;;4.40;;
24151;SDS011;12311;50.866;4.332;2023-04-06T05:54:47;9.73;;;5.20;;
24151;SDS011;12311;50.866;4.332;2023-04-06T05:57:13;12.77;;;5.57;;
24151;SDS011;12311;50.866;4.332;2023-04-06T05:59:38;13.88;;;5.72;;
24151;SDS011;12311;50.866;4.332;2023-04-06T06:02:04;17.08;;;5.03;;
24151;SDS011;12311;50.866;4.332;2023-04-06T06:04:30;15.23;;;5.50;;
24151;SDS011;12311;50.866;4.332;2023-04-06T06:06:56;11.45;;;5.20;;
24151;SDS011;12311;50.866;4.332;2023-04-06T06:09:22;9.07;;;3.53;;
24151;SDS011;12311;50.866;4.332;2023-04-06T06:11:48;11.77;;;4.97;;
24151;SDS011;12311;50.866;4.332;2023-04-06T06:14:14;18.80;;;5.70;;
24151;SDS011;12311;50.866;4.332;2023-04-06T06:16:40;9.98;;;4.65;;
24151;SDS011;12311;50.866;4.332;2023-04-06T06:19:07;11.52;;;5.57;;
24151;SDS011;12311;50.866;4.332;2023-04-06T06:21:32;19.77;;;4.72;;
24151;SDS011;12311;50.866;4.332;2023-04-06T06:23:58;17.30;;;5.03;;
24151;SDS011;12311;50.866;4.332;2023-04-06T06:26:24;12.55;;;5.45;;
24151;SDS011;12311;50.866;4.332;2023-04-06T06:28:51;11.38;;;5.38;;
24151;SDS011;12311;50.866;4.332;2023-04-06T06:31:16;9.07;;;3.78;;
24151;SDS011;12311;50.866;4.332;2023-04-06T06:33:45;11.75;;;5.05;;
24151;SDS011;12311;50.866;4.332;2023-04-06T06:36:11;14.80;;;4.95;;
24151;SDS011;12311;50.866;4.332;2023-04-06T06:38:36;14.27;;;5.00;;
24151;SDS011;12311;50.866;4.332;2023-04-06T06:41:03;14.10;;;5.20;;
24151;SDS011;12311;50.866;4.332;2023-04-06T06:43:29;15.07;;;5.90;;
24151;SDS011;12311;50.866;4.332;2023-04-06T06:45:55;12.80;;;4.95;;
24151;SDS011;12311;50.866;4.332;2023-04-06T06:48:20;13.13;;;5.50;;
24151;SDS011;12311;50.866;4.332;2023-04-06T06:50:47;10.52;;;5.13;;
24151;SDS011;12311;50.866;4.332;2023-04-06T06:53:13;12.23;;;5.10;;
24151;SDS011;12311;50.866;4.332;2023-04-06T06:55:39;13.80;;;5.85;;
24151;SDS011;12311;50.866;4.332;2023-04-06T06:58:05;12.77;;;4.20;;
24151;SDS011;12311;50.866;4.332;2023-04-06T07:00:31;15.05;;;5.72;;
24151;SDS011;12311;50.866;4.332;2023-04-06T07:02:57;9.23;;;4.75;;
24151;SDS011;12311;50.866;4.332;2023-04-06T07:05:23;9.82;;;4.45;;
24151;SDS011;12311;50.866;4.332;2023-04-06T07:07:48;15.23;;;5.28;;
24151;SDS011;12311;50.866;4.332;2023-04-06T07:10:14;13.85;;;4.38;;
24151;SDS011;12311;50.866;4.332;2023-04-06T07:12:40;11.98;;;4.55;;
24151;SDS011;12311;50.866;4.332;2023-04-06T07:15:06;9.85;;;3.92;;
24151;SDS011;12311;50.866;4.332;2023-04-06T07:17:32;15.05;;;4.80;;
24151;SDS011;12311;50.866;4.332;2023-04-06T07:19:58;12.02;;;5.18;;
24151;SDS011;12311;50.866;4.332;2023-04-06T07:22:24;27.08;;;4.40;;
24151;SDS011;12311;50.866;4.332;2023-04-06T07:24:49;11.45;;;4.47;;
24151;SDS011;12311;50.866;4.332;2023-04-06T07:27:16;10.55;;;4.50;;
24151;SDS011;12311;50.866;4.332;2023-04-06T07:29:43;12.00;;;4.45;;
24151;SDS011;12311;50.866;4.332;2023-04-06T07:32:09;13.48;;;5.63;;
24151;SDS011;12311;50.866;4.332;2023-04-06T07:34:35;13.05;;;4.43;;
24151;SDS011;12311;50.866;4.332;2023-04-06T07:37:01;10.35;;;4.30;;
24151;SDS011;12311;50.866;4.332;2023-04-06T07:39:28;12.07;;;4.25;;
24151;SDS011;12311;50.866;4.332;2023-04-06T07:41:53;9.68;;;4.63;;
24151;SDS011;12311;50.866;4.332;2023-04-06T07:44:19;7.88;;;3.47;;
24151;SDS011;12311;50.866;4.332;2023-04-06T07:46:45;9.13;;;3.10;;
24151;SDS011;12311;50.866;4.332;2023-04-06T07:49:11;9.38;;;4.05;;
24151;SDS011;12311;50.866;4.332;2023-04-06T07:51:37;4.10;;;3.08;;
24151;SDS011;12311;50.866;4.332;2023-04-06T07:54:04;7.65;;;2.88;;
24151;SDS011;12311;50.866;4.332;2023-04-06T07:56:30;6.97;;;3.03;;
24151;SDS011;12311;50.866;4.332;2023-04-06T07:58:56;6.60;;;3.28;;
24151;SDS011;12311;50.866;4.332;2023-04-06T08:01:23;11.00;;;2.47;;
24151;SDS011;12311;50.866;4.332;2023-04-06T08:03:49;6.55;;;3.13;;
24151;SDS011;12311;50.866;4.332;2023-04-06T08:06:15;12.35;;;3.63;;
24151;SDS011;12311;50.866;4.332;2023-04-06T08:08:41;8.63;;;3.33;;
24151;SDS011;12311;50.866;4.332;2023-04-06T08:11:07;6.85;;;3.53;;
24151;SDS011;12311;50.866;4.332;2023-04-06T08:13:34;7.25;;;3.17;;
24151;SDS011;12311;50.866;4.332;2023-04-06T08:16:00;5.30;;;2.80;;
24151;SDS011;12311;50.866;4.332;2023-04-06T08:18:26;5.95;;;2.80;;
24151;SDS011;12311;50.866;4.332;2023-04-06T08:20:52;5.00;;;2.50;;
24151;SDS011;12311;50.866;4.332;2023-04-06T08:23:17;3.80;;;2.22;;
24151;SDS011;12311;50.866;4.332;2023-04-06T08:25:43;5.70;;;3.00;;
24151;SDS011;12311;50.866;4.332;2023-04-06T08:28:09;8.20;;;2.42;;
24151;SDS011;12311;50.866;4.332;2023-04-06T08:30:35;9.52;;;3.38;;
24151;SDS011;12311;50.866;4.332;2023-04-06T08:33:02;5.45;;;3.30;;
24151;SDS011;12311;50.866;4.332;2023-04-06T08:35:27;4.93;;;2.13;;
24151;SDS011;12311;50.866;4.332;2023-04-06T08:37:53;11.45;;;2.63;;
24151;SDS011;12311;50.866;4.332;2023-04-06T08:40:19;11.63;;;2.85;;
24151;SDS011;12311;50.866;4.332;2023-04-06T08:42:48;6.40;;;2.22;;
24151;SDS011;12311;50.866;4.332;2023-04-06T08:45:17;5.45;;;2.40;;
24151;SDS011;12311;50.866;4.332;2023-04-06T08:47:46;5.05;;;1.80;;
24151;SDS011;12311;50.866;4.332;2023-04-06T08:50:19;5.28;;;2.08;;
24151;SDS011;12311;50.866;4.332;2023-04-06T08:52:49;6.47;;;3.08;;
24151;SDS011;12311;50.866;4.332;2023-04-06T08:55:15;4.38;;;2.28;;
24151;SDS011;12311;50.866;4.332;2023-04-06T08:57:41;7.72;;;1.85;;
24151;SDS011;12311;50.866;4.332;2023-04-06T09:00:08;8.48;;;3.25;;
24151;SDS011;12311;50.866;4.332;2023-04-06T09:02:38;7.30;;;3.72;;
24151;SDS011;12311;50.866;4.332;2023-04-06T09:05:08;3.42;;;2.17;;
24151;SDS011;12311;50.866;4.332;2023-04-06T09:07:37;7.07;;;3.72;;
24151;SDS011;12311;50.866;4.332;2023-04-06T09:10:03;6.85;;;2.25;;
24151;SDS011;12311;50.866;4.332;2023-04-06T09:12:30;6.90;;;2.88;;
24151;SDS011;12311;50.866;4.332;2023-04-06T09:14:57;6.07;;;3.10;;
24151;SDS011;12311;50.866;4.332;2023-04-06T09:17:28;5.40;;;2.92;;
24151;SDS011;12311;50.866;4.332;2023-04-06T09:19:57;7.72;;;3.45;;
24151;SDS011;12311;50.866;4.332;2023-04-06T09:22:23;8.15;;;2.58;;
24151;SDS011;12311;50.866;4.332;2023-04-06T09:24:51;7.13;;;2.88;;
24151;SDS011;12311;50.866;4.332;2023-04-06T09:27:18;6.10;;;3.25;;
24151;SDS011;12311;50.866;4.332;2023-04-06T09:30:03;5.93;;;3.15;;
24151;SDS011;12311;50.866;4.332;2023-04-06T09:32:43;6.05;;;3.10;;
24151;SDS011;12311;50.866;4.332;2023-04-06T09:35:20;8.63;;;3.30;;
24151;SDS011;12311;50.866;4.332;2023-04-06T09:37:47;6.90;;;2.95;;
24151;SDS011;12311;50.866;4.332;2023-04-06T09:40:14;6.82;;;2.97;;
24151;SDS011;12311;50.866;4.332;2023-04-06T09:42:42;4.90;;;2.28;;
24151;SDS011;12311;50.866;4.332;2023-04-06T09:45:11;2.75;;;1.70;;
24151;SDS011;12311;50.866;4.332;2023-04-06T09:47:37;5.53;;;2.63;;
24151;SDS011;12311;50.866;4.332;2023-04-06T09:50:07;5.25;;;2.28;;
24151;SDS011;12311;50.866;4.332;2023-04-06T09:52:56;4.60;;;2.00;;
24151;SDS011;12311;50.866;4.332;2023-04-06T09:55:23;10.18;;;3.13;;
24151;SDS011;12311;50.866;4.332;2023-04-06T09:58:04;5.93;;;2.25;;
24151;SDS011;12311;50.866;4.332;2023-04-06T10:00:32;4.95;;;2.50;;
24151;SDS011;12311;50.866;4.332;2023-04-06T10:03:14;5.28;;;2.60;;
24151;SDS011;12311;50.866;4.332;2023-04-06T10:08:26;4.18;;;2.30;;
24151;SDS011;12311;50.866;4.332;2023-04-06T10:10:53;5.72;;;2.42;;
24151;SDS011;12311;50.866;4.332;2023-04-06T10:13:20;7.88;;;2.92;;
24151;SDS011;12311;50.866;4.332;2023-04-06T10:15:48;5.03;;;2.20;;
24151;SDS011;12311;50.866;4.332;2023-04-06T10:18:15;7.07;;;2.88;;
24151;SDS011;12311;50.866;4.332;2023-04-06T10:21:01;5.43;;;2.50;;
24151;SDS011;12311;50.866;4.332;2023-04-06T10:26:14;6.03;;;2.58;;
24151;SDS011;12311;50.866;4.332;2023-04-06T10:28:41;5.63;;;2.13;;
24151;SDS011;12311;50.866;4.332;2023-04-06T10:31:08;6.03;;;2.45;;
24151;SDS011;12311;50.866;4.332;2023-04-06T10:33:34;4.90;;;1.88;;
24151;SDS011;12311;50.866;4.332;2023-04-06T10:36:21;4.00;;;2.53;;
24151;SDS011;12311;50.866;4.332;2023-04-06T10:38:53;5.63;;;2.45;;
24151;SDS011;12311;50.866;4.332;2023-04-06T10:41:21;17.60;;;4.78;;
24151;SDS011;12311;50.866;4.332;2023-04-06T10:43:54;9.77;;;3.65;;
24151;SDS011;12311;50.866;4.332;2023-04-06T10:46:25;9.43;;;4.43;;
24151;SDS011;12311;50.866;4.332;2023-04-06T10:48:52;4.85;;;2.17;;
24151;SDS011;12311;50.866;4.332;2023-04-06T10:51:18;8.15;;;3.63;;
24151;SDS011;12311;50.866;4.332;2023-04-06T10:53:49;7.40;;;3.83;;
24151;SDS011;12311;50.866;4.332;2023-04-06T10:56:15;6.88;;;3.42;;
24151;SDS011;12311;50.866;4.332;2023-04-06T10:58:45;9.35;;;3.22;;
24151;SDS011;12311;50.866;4.332;2023-04-06T11:01:12;8.23;;;3.17;;
24151;SDS011;12311;50.866;4.332;2023-04-06T11:03:46;5.30;;;3.17;;
24151;SDS011;12311;50.866;4.332;2023-04-06T11:08:45;7.28;;;3.40;;
24151;SDS011;12311;50.866;4.332;2023-04-06T11:11:15;10.13;;;3.83;;
24151;SDS011;12311;50.866;4.332;2023-04-06T11:16:12;7.63;;;2.63;;
24151;SDS011;12311;50.866;4.332;2023-04-06T11:18:46;4.70;;;2.92;;
24151;SDS011;12311;50.866;4.332;2023-04-06T11:21:15;9.82;;;4.28;;
24151;SDS011;12311;50.866;4.332;2023-04-06T11:23:42;9.27;;;3.83;;
24151;SDS011;12311;50.866;4.332;2023-04-06T11:26:14;7.95;;;3.13;;
24151;SDS011;12311;50.866;4.332;2023-04-06T11:28:43;7.38;;;2.88;;
24151;SDS011;12311;50.866;4.332;2023-04-06T11:31:09;10.23;;;4.03;;
24151;SDS011;12311;50.866;4.332;2023-04-06T11:33:36;8.43;;;3.55;;
24151;SDS011;12311;50.866;4.332;2023-04-06T11:36:03;13.55;;;3.08;;
24151;SDS011;12311;50.866;4.332;2023-04-06T11:38:30;8.63;;;3.92;;
24151;SDS011;12311;50.866;4.332;2023-04-06T11:40:56;5.78;;;2.90;;
24151;SDS011;12311;50.866;4.332;2023-04-06T11:43:29;7.28;;;3.15;;
24151;SDS011;12311;50.866;4.332;2023-04-06T11:46:02;7.32;;;3.13;;
24151;SDS011;12311;50.866;4.332;2023-04-06T11:48:29;9.75;;;3.97;;
24151;SDS011;12311;50.866;4.332;2023-04-06T11:50:58;9.90;;;4.30;;
24151;SDS011;12311;50.866;4.332;2023-04-06T11:53:29;7.30;;;2.95;;
24151;SDS011;12311;50.866;4.332;2023-04-06T11:55:55;14.77;;;2.80;;
24151;SDS011;12311;50.866;4.332;2023-04-06T11:58:21;5.68;;;2.65;;
24151;SDS011;12311;50.866;4.332;2023-04-06T12:00:47;11.20;;;4.05;;
24151;SDS011;12311;50.866;4.332;2023-04-06T12:03:13;5.45;;;3.47;;
24151;SDS011;12311;50.866;4.332;2023-04-06T12:05:39;6.97;;;3.42;;
24151;SDS011;12311;50.866;4.332;2023-04-06T12:08:05;7.05;;;3.35;;
24151;SDS011;12311;50.866;4.332;2023-04-06T12:10:30;5.20;;;2.33;;
24151;SDS011;12311;50.866;4.332;2023-04-06T12:12:56;11.60;;;4.43;;
24151;SDS011;12311;50.866;4.332;2023-04-06T12:15:22;5.38;;;2.67;;
24151;SDS011;12311;50.866;4.332;2023-04-06T12:17:48;7.53;;;3.08;;
24151;SDS011;12311;50.866;4.332;2023-04-06T12:20:14;7.28;;;3.78;;
24151;SDS011;12311;50.866;4.332;2023-04-06T12:22:40;5.78;;;2.80;;
24151;SDS011;12311;50.866;4.332;2023-04-06T12:25:06;8.10;;;3.58;;
24151;SDS011;12311;50.866;4.332;2023-04-06T12:27:32;13.30;;;3.55;;
24151;SDS011;12311;50.866;4.332;2023-04-06T12:29:58;8.63;;;2.92;;
24151;SDS011;12311;50.866;4.332;2023-04-06T12:32:24;9.65;;;4.35;;
24151;SDS011;12311;50.866;4.332;2023-04-06T12:34:51;12.68;;;3.20;;
24151;SDS011;12311;50.866;4.332;2023-04-06T12:37:17;11.55;;;3.45;;
24151;SDS011;12311;50.866;4.332;2023-04-06T12:39:43;5.93;;;2.58;;
24151;SDS011;12311;50.866;4.332;2023-04-06T12:42:10;5.28;;;2.80;;
24151;SDS011;12311;50.866;4.332;2023-04-06T12:44:37;6.97;;;4.03;;
24151;SDS011;12311;50.866;4.332;2023-04-06T12:47:03;5.60;;;3.17;;
24151;SDS011;12311;50.866;4.332;2023-04-06T12:49:29;8.55;;;3.10;;
24151;SDS011;12311;50.866;4.332;2023-04-06T12:51:56;7.45;;;4.00;;
24151;SDS011;12311;50.866;4.332;2023-04-06T12:54:22;6.68;;;3.00;;
24151;SDS011;12311;50.866;4.332;2023-04-06T12:56:47;6.60;;;3.40;;
24151;SDS011;12311;50.866;4.332;2023-04-06T12:59:13;5.47;;;2.70;;
24151;SDS011;12311;50.866;4.332;2023-04-06T13:01:39;5.85;;;3.03;;
24151;SDS011;12311;50.866;4.332;2023-04-06T13:04:05;5.70;;;2.88;;
24151;SDS011;12311;50.866;4.332;2023-04-06T13:06:31;5.75;;;2.92;;
24151;SDS011;12311;50.866;4.332;2023-04-06T13:08:56;7.07;;;3.15;;
24151;SDS011;12311;50.866;4.332;2023-04-06T13:11:22;7.85;;;2.90;;
24151;SDS011;12311;50.866;4.332;2023-04-06T13:13:49;6.13;;;3.17;;
24151;SDS011;12311;50.866;4.332;2023-04-06T13:16:15;8.60;;;2.97;;
24151;SDS011;12311;50.866;4.332;2023-04-06T13:18:40;6.47;;;3.15;;
24151;SDS011;12311;50.866;4.332;2023-04-06T13:21:06;9.18;;;3.58;;
24151;SDS011;12311;50.866;4.332;2023-04-06T13:23:33;9.55;;;3.35;;
24151;SDS011;12311;50.866;4.332;2023-04-06T13:28:30;8.73;;;4.18;;
24151;SDS011;12311;50.866;4.332;2023-04-06T13:30:58;6.88;;;3.45;;
24151;SDS011;12311;50.866;4.332;2023-04-06T13:33:25;8.48;;;3.90;;
24151;SDS011;12311;50.866;4.332;2023-04-06T13:35:51;4.72;;;3.20;;
24151;SDS011;12311;50.866;4.332;2023-04-06T13:38:17;6.90;;;3.65;;
24151;SDS011;12311;50.866;4.332;2023-04-06T13:40:43;9.07;;;3.88;;
24151;SDS011;12311;50.866;4.332;2023-04-06T13:43:09;8.25;;;3.35;;
24151;SDS011;12311;50.866;4.332;2023-04-06T13:45:35;9.38;;;3.92;;
24151;SDS011;12311;50.866;4.332;2023-04-06T13:48:01;7.65;;;3.50;;
24151;SDS011;12311;50.866;4.332;2023-04-06T13:50:27;7.07;;;3.97;;
24151;SDS011;12311;50.866;4.332;2023-04-06T13:52:53;12.48;;;3.83;;
24151;SDS011;12311;50.866;4.332;2023-04-06T13:55:19;9.05;;;3.22;;
24151;SDS011;12311;50.866;4.332;2023-04-06T13:57:45;5.93;;;3.10;;
24151;SDS011;12311;50.866;4.332;2023-04-06T14:00:11;6.65;;;3.75;;
24151;SDS011;12311;50.866;4.332;2023-04-06T14:02:38;7.93;;;3.97;;
24151;SDS011;12311;50.866;4.332;2023-04-06T14:05:04;8.68;;;3.47;;
24151;SDS011;12311;50.866;4.332;2023-04-06T14:07:30;8.18;;;3.55;;
24151;SDS011;12311;50.866;4.332;2023-04-06T14:09:56;6.07;;;2.95;;
24151;SDS011;12311;50.866;4.332;2023-04-06T14:12:22;6.03;;;3.15;;
24151;SDS011;12311;50.866;4.332;2023-04-06T14:14:50;7.30;;;3.30;;
24151;SDS011;12311;50.866;4.332;2023-04-06T14:17:16;4.65;;;3.10;;
24151;SDS011;12311;50.866;4.332;2023-04-06T14:19:42;5.72;;;2.67;;
24151;SDS011;12311;50.866;4.332;2023-04-06T14:22:08;17.20;;;3.50;;
24151;SDS011;12311;50.866;4.332;2023-04-06T14:24:33;8.90;;;3.83;;
24151;SDS011;12311;50.866;4.332;2023-04-06T14:27:00;7.50;;;3.45;;
24151;SDS011;12311;50.866;4.332;2023-04-06T14:29:27;9.00;;;3.95;;
24151;SDS011;12311;50.866;4.332;2023-04-06T14:31:53;9.00;;;3.28;;
24151;SDS011;12311;50.866;4.332;2023-04-06T14:34:24;6.35;;;3.70;;
24151;SDS011;12311;50.866;4.332;2023-04-06T14:36:54;6.32;;;3.90;;
24151;SDS011;12311;50.866;4.332;2023-04-06T14:39:20;8.30;;;3.75;;
24151;SDS011;12311;50.866;4.332;2023-04-06T14:41:46;7.38;;;2.95;;
24151;SDS011;12311;50.866;4.332;2023-04-06T14:44:15;7.13;;;3.83;;
24151;SDS011;12311;50.866;4.332;2023-04-06T14:46:41;6.65;;;4.00;;
24151;SDS011;12311;50.866;4.332;2023-04-06T14:49:07;10.27;;;4.53;;
24151;SDS011;12311;50.866;4.332;2023-04-06T14:51:33;11.52;;;4.13;;
24151;SDS011;12311;50.866;4.332;2023-04-06T14:54:00;8.50;;;3.75;;
24151;SDS011;12311;50.866;4.332;2023-04-06T14:56:28;9.30;;;3.63;;
24151;SDS011;12311;50.866;4.332;2023-04-06T14:58:56;10.10;;;4.80;;
24151;SDS011;12311;50.866;4.332;2023-04-06T15:01:23;7.95;;;4.20;;
24151;SDS011;12311;50.866;4.332;2023-04-06T15:03:49;7.95;;;3.88;;
24151;SDS011;12311;50.866;4.332;2023-04-06T15:06:15;10.50;;;4.63;;
24151;SDS011;12311;50.866;4.332;2023-04-06T15:08:44;9.50;;;4.03;;
24151;SDS011;12311;50.866;4.332;2023-04-06T15:11:11;8.35;;;3.97;;
24151;SDS011;12311;50.866;4.332;2023-04-06T15:13:37;10.10;;;5.15;;
24151;SDS011;12311;50.866;4.332;2023-04-06T15:16:05;10.43;;;3.88;;
24151;SDS011;12311;50.866;4.332;2023-04-06T15:18:31;11.35;;;4.65;;
24151;SDS011;12311;50.866;4.332;2023-04-06T15:20:58;12.45;;;4.43;;
24151;SDS011;12311;50.866;4.332;2023-04-06T15:23:24;14.10;;;4.22;;
24151;SDS011;12311;50.866;4.332;2023-04-06T15:25:50;7.22;;;4.10;;
24151;SDS011;12311;50.866;4.332;2023-04-06T15:28:16;8.02;;;4.38;;
24151;SDS011;12311;50.866;4.332;2023-04-06T15:30:42;12.00;;;4.28;;
24151;SDS011;12311;50.866;4.332;2023-04-06T15:33:08;11.63;;;4.85;;
24151;SDS011;12311;50.866;4.332;2023-04-06T15:35:33;10.27;;;4.32;;
24151;SDS011;12311;50.866;4.332;2023-04-06T15:38:04;9.63;;;4.72;;
24151;SDS011;12311;50.866;4.332;2023-04-06T15:40:31;10.40;;;5.15;;
24151;SDS011;12311;50.866;4.332;2023-04-06T15:42:57;14.70;;;5.30;;
24151;SDS011;12311;50.866;4.332;2023-04-06T15:45:22;11.63;;;4.80;;
24151;SDS011;12311;50.866;4.332;2023-04-06T15:47:48;10.90;;;4.38;;
24151;SDS011;12311;50.866;4.332;2023-04-06T15:50:15;10.40;;;4.90;;
24151;SDS011;12311;50.866;4.332;2023-04-06T15:52:42;11.77;;;5.35;;
24151;SDS011;12311;50.866;4.332;2023-04-06T15:55:08;9.57;;;4.47;;
24151;SDS011;12311;50.866;4.332;2023-04-06T15:57:34;12.68;;;4.53;;
24151;SDS011;12311;50.866;4.332;2023-04-06T16:00:00;9.13;;;4.43;;
24151;SDS011;12311;50.866;4.332;2023-04-06T16:02:27;9.98;;;4.38;;
24151;SDS011;12311;50.866;4.332;2023-04-06T16:04:54;9.27;;;4.38;;
24151;SDS011;12311;50.866;4.332;2023-04-06T16:07:20;9.27;;;4.10;;
24151;SDS011;12311;50.866;4.332;2023-04-06T16:09:46;11.10;;;4.97;;
24151;SDS011;12311;50.866;4.332;2023-04-06T16:12:12;14.23;;;4.85;;
24151;SDS011;12311;50.866;4.332;2023-04-06T16:14:38;13.63;;;4.80;;
24151;SDS011;12311;50.866;4.332;2023-04-06T16:17:04;12.25;;;4.90;;
24151;SDS011;12311;50.866;4.332;2023-04-06T16:19:29;12.23;;;4.55;;
24151;SDS011;12311;50.866;4.332;2023-04-06T16:21:55;8.13;;;4.25;;
24151;SDS011;12311;50.866;4.332;2023-04-06T16:24:21;10.90;;;5.13;;
24151;SDS011;12311;50.866;4.332;2023-04-06T16:26:47;14.93;;;5.40;;
24151;SDS011;12311;50.866;4.332;2023-04-06T16:29:13;14.30;;;4.90;;
24151;SDS011;12311;50.866;4.332;2023-04-06T16:31:41;13.60;;;5.22;;
24151;SDS011;12311;50.866;4.332;2023-04-06T16:34:10;19.52;;;5.97;;
24151;SDS011;12311;50.866;4.332;2023-04-06T16:36:37;11.32;;;4.78;;
24151;SDS011;12311;50.866;4.332;2023-04-06T16:39:05;9.70;;;4.78;;
24151;SDS011;12311;50.866;4.332;2023-04-06T16:41:32;11.85;;;5.70;;
24151;SDS011;12311;50.866;4.332;2023-04-06T16:43:58;9.65;;;4.78;;
24151;SDS011;12311;50.866;4.332;2023-04-06T16:46:30;12.50;;;4.95;;
24151;SDS011;12311;50.866;4.332;2023-04-06T16:48:57;15.40;;;6.38;;
24151;SDS011;12311;50.866;4.332;2023-04-06T16:51:23;11.35;;;4.40;;
24151;SDS011;12311;50.866;4.332;2023-04-06T16:53:51;8.10;;;4.15;;
24151;SDS011;12311;50.866;4.332;2023-04-06T16:56:17;9.55;;;3.92;;
24151;SDS011;12311;50.866;4.332;2023-04-06T16:58:43;15.05;;;5.13;;
24151;SDS011;12311;50.866;4.332;2023-04-06T17:01:16;11.23;;;5.30;;
24151;SDS011;12311;50.866;4.332;2023-04-06T17:03:52;8.73;;;4.40;;
24151;SDS011;12311;50.866;4.332;2023-04-06T17:06:19;9.07;;;3.30;;
24151;SDS011;12311;50.866;4.332;2023-04-06T17:08:46;13.38;;;3.92;;
24151;SDS011;12311;50.866;4.332;2023-04-06T17:11:12;6.60;;;3.38;;
24151;SDS011;12311;50.866;4.332;2023-04-06T17:13:39;6.07;;;2.70;;
24151;SDS011;12311;50.866;4.332;2023-04-06T17:16:06;8.38;;;2.30;;
24151;SDS011;12311;50.866;4.332;2023-04-06T17:18:31;4.43;;;2.60;;
24151;SDS011;12311;50.866;4.332;2023-04-06T17:21:02;3.75;;;1.90;;
24151;SDS011;12311;50.866;4.332;2023-04-06T17:23:30;11.98;;;2.95;;
24151;SDS011;12311;50.866;4.332;2023-04-06T17:25:56;6.25;;;2.83;;
24151;SDS011;12311;50.866;4.332;2023-04-06T17:28:23;10.63;;;2.22;;
24151;SDS011;12311;50.866;4.332;2023-04-06T17:30:49;9.05;;;1.58;;
24151;SDS011;12311;50.866;4.332;2023-04-06T17:33:15;2.15;;;1.48;;
24151;SDS011;12311;50.866;4.332;2023-04-06T17:35:41;9.98;;;1.80;;
24151;SDS011;12311;50.866;4.332;2023-04-06T17:38:10;5.00;;;2.67;;
24151;SDS011;12311;50.866;4.332;2023-04-06T17:40:35;3.28;;;1.80;;
24151;SDS011;12311;50.866;4.332;2023-04-06T17:43:02;2.78;;;1.75;;
24151;SDS011;12311;50.866;4.332;2023-04-06T17:45:28;4.20;;;1.67;;
24151;SDS011;12311;50.866;4.332;2023-04-06T17:47:54;5.10;;;2.13;;
24151;SDS011;12311;50.866;4.332;2023-04-06T17:50:20;4.28;;;1.83;;
24151;SDS011;12311;50.866;4.332;2023-04-06T17:52:45;4.15;;;2.00;;
24151;SDS011;12311;50.866;4.332;2023-04-06T17:55:13;6.55;;;1.92;;
24151;SDS011;12311;50.866;4.332;2023-04-06T17:57:39;4.90;;;1.50;;
24151;SDS011;12311;50.866;4.332;2023-04-06T18:00:08;8.90;;;2.22;;
24151;SDS011;12311;50.866;4.332;2023-04-06T18:02:35;2.63;;;1.30;;
24151;SDS011;12311;50.866;4.332;2023-04-06T18:05:01;7.30;;;2.72;;
24151;SDS011;12311;50.866;4.332;2023-04-06T18:07:27;9.38;;;2.22;;
24151;SDS011;12311;50.866;4.332;2023-04-06T18:09:53;7.22;;;1.85;;
24151;SDS011;12311;50.866;4.332;2023-04-06T18:12:19;9.50;;;3.30;;
24151;SDS011;12311;50.866;4.332;2023-04-06T18:14:46;11.52;;;3.40;;
24151;SDS011;12311;50.866;4.332;2023-04-06T18:17:12;6.97;;;2.13;;
24151;SDS011;12311;50.866;4.332;2023-04-06T18:19:38;7.43;;;2.10;;
24151;SDS011;12311;50.866;4.332;2023-04-06T18:22:03;4.85;;;2.10;;
24151;SDS011;12311;50.866;4.332;2023-04-06T18:24:29;5.82;;;1.85;;
24151;SDS011;12311;50.866;4.332;2023-04-06T18:26:55;8.82;;;1.77;;
24151;SDS011;12311;50.866;4.332;2023-04-06T18:29:21;3.33;;;1.90;;
24151;SDS011;12311;50.866;4.332;2023-04-06T18:31:47;12.65;;;1.95;;
24151;SDS011;12311;50.866;4.332;2023-04-06T18:34:15;3.85;;;1.80;;
24151;SDS011;12311;50.866;4.332;2023-04-06T18:36:42;6.15;;;1.90;;
24151;SDS011;12311;50.866;4.332;2023-04-06T18:39:08;5.97;;;2.15;;
24151;SDS011;12311;50.866;4.332;2023-04-06T18:41:34;4.30;;;1.73;;
24151;SDS011;12311;50.866;4.332;2023-04-06T18:44:00;12.07;;;2.05;;
24151;SDS011;12311;50.866;4.332;2023-04-06T18:46:27;3.80;;;2.05;;
24151;SDS011;12311;50.866;4.332;2023-04-06T18:48:52;2.65;;;1.77;;
24151;SDS011;12311;50.866;4.332;2023-04-06T18:51:18;2.28;;;1.25;;
24151;SDS011;12311;50.866;4.332;2023-04-06T18:53:44;1.58;;;0.88;;
24151;SDS011;12311;50.866;4.332;2023-04-06T18:56:18;1.20;;;1.10;;
24151;SDS011;12311;50.866;4.332;2023-04-06T18:58:45;2.00;;;1.30;;
24151;SDS011;12311;50.866;4.332;2023-04-06T19:01:28;1.35;;;0.82;;
24151;SDS011;12311;50.866;4.332;2023-04-06T19:03:55;3.53;;;1.00;;
24151;SDS011;12311;50.866;4.332;2023-04-06T19:06:21;2.00;;;1.02;;
24151;SDS011;12311;50.866;4.332;2023-04-06T19:08:48;6.05;;;1.70;;
24151;SDS011;12311;50.866;4.332;2023-04-06T19:11:14;2.03;;;1.08;;
24151;SDS011;12311;50.866;4.332;2023-04-06T19:13:40;2.45;;;1.38;;
24151;SDS011;12311;50.866;4.332;2023-04-06T19:16:10;3.05;;;1.42;;
24151;SDS011;12311;50.866;4.332;2023-04-06T19:18:37;5.10;;;1.55;;
24151;SDS011;12311;50.866;4.332;2023-04-06T19:21:16;7.07;;;1.55;;
24151;SDS011;12311;50.866;4.332;2023-04-06T19:23:43;3.40;;;1.70;;
24151;SDS011;12311;50.866;4.332;2023-04-06T19:26:10;3.15;;;1.75;;
24151;SDS011;12311;50.866;4.332;2023-04-06T19:28:37;2.05;;;1.40;;
24151;SDS011;12311;50.866;4.332;2023-04-06T19:31:04;3.78;;;1.83;;
24151;SDS011;12311;50.866;4.332;2023-04-06T19:33:31;8.32;;;1.42;;
24151;SDS011;12311;50.866;4.332;2023-04-06T19:35:57;3.63;;;1.60;;
24151;SDS011;12311;50.866;4.332;2023-04-06T19:38:23;4.57;;;2.13;;
24151;SDS011;12311;50.866;4.332;2023-04-06T19:40:49;5.03;;;1.90;;
24151;SDS011;12311;50.866;4.332;2023-04-06T19:43:15;6.10;;;2.40;;
24151;SDS011;12311;50.866;4.332;2023-04-06T19:45:42;9.70;;;3.45;;
24151;SDS011;12311;50.866;4.332;2023-04-06T19:48:07;3.15;;;2.25;;
24151;SDS011;12311;50.866;4.332;2023-04-06T19:50:33;9.40;;;2.17;;
24151;SDS011;12311;50.866;4.332;2023-04-06T19:52:59;4.57;;;1.42;;
24151;SDS011;12311;50.866;4.332;2023-04-06T19:55:26;7.10;;;1.75;;
24151;SDS011;12311;50.866;4.332;2023-04-06T19:57:52;4.88;;;2.03;;
24151;SDS011;12311;50.866;4.332;2023-04-06T20:00:18;3.20;;;1.73;;
24151;SDS011;12311;50.866;4.332;2023-04-06T20:02:44;7.47;;;2.22;;
24151;SDS011;12311;50.866;4.332;2023-04-06T20:05:10;4.45;;;2.03;;
24151;SDS011;12311;50.866;4.332;2023-04-06T20:07:35;6.43;;;2.60;;
24151;SDS011;12311;50.866;4.332;2023-04-06T20:10:02;3.28;;;1.35;;
24151;SDS011;12311;50.866;4.332;2023-04-06T20:12:29;5.03;;;1.92;;
24151;SDS011;12311;50.866;4.332;2023-04-06T20:14:55;3.83;;;2.03;;
